Time;durP1;ratioP1;P1;durP2;ratioP2;P2;SDS_P1;SDS_P2;PMS_P1;PMS_P2;Temp;Humidity;BMP_temperature;BMP_pressure;BME280_temperature;BME280_humidity;BME280_pressure;Samples;Min_cycle;Max_cycle;Signal;HPM_P1;HPM_P2
2020/12/10 00:02:43;;;;;;;18.07;9.83;;;;;;;4.64;84.67;102264.88;6217646;28;20704;-76
2020/12/10 00:06:06;;;;;;;17.97;10.63;;;;;;;4.42;85.57;102248.94;6213758;28;20326;-78
2020/12/10 00:09:28;;;;;;;17.10;9.63;;;;;;;4.66;84.12;102257.47;6215702;28;20208;-76
2020/12/10 00:12:40;;;;;;;16.67;9.43;;;;;;;4.65;83.54;102250.34;6206161;28;20227;-76
2020/12/10 00:15:44;;;;;;;22.10;10.30;;;;;;;4.64;84.62;102248.66;6216691;28;20242;-77
2020/12/10 00:18:53;;;;;;;16.57;10.47;;;;;;;4.62;84.51;102247.09;6214967;28;20201;-76
2020/12/10 00:21:57;;;;;;;17.00;10.87;;;;;;;4.56;85.19;102245.81;6209685;28;20290;-77
2020/12/10 00:25:02;;;;;;;20.80;10.73;;;;;;;4.81;84.06;102239.78;6213983;28;20507;-76
2020/12/10 00:28:11;;;;;;;15.10;10.70;;;;;;;4.61;85.41;102254.34;6209953;28;20235;-77
2020/12/10 00:31:15;;;;;;;18.83;10.60;;;;;;;4.49;85.42;102249.25;6212512;28;20300;-76
2020/12/10 00:34:35;;;;;;;24.50;10.63;;;;;;;4.63;85.11;102246.94;6206242;28;20302;-76
2020/12/10 00:37:57;;;;;;;16.07;10.73;;;;;;;4.74;84.34;102244.09;6215788;28;20191;-77
2020/12/10 00:41:01;;;;;;;18.27;11.20;;;;;;;4.50;86.43;102240.97;6211569;28;20220;-76
2020/12/10 00:44:10;;;;;;;18.50;10.73;;;;;;;4.45;86.08;102237.84;6216845;28;20560;-76
2020/12/10 00:47:18;;;;;;;18.80;11.00;;;;;;;4.61;85.84;102246.25;6218437;28;20197;-77
2020/12/10 00:50:29;;;;;;;19.23;10.47;;;;;;;4.78;85.14;102236.53;6198220;28;20608;-76
2020/12/10 00:53:40;;;;;;;18.97;10.60;;;;;;;4.67;85.38;102232.16;6200854;28;20226;-76
2020/12/10 00:56:44;;;;;;;15.17;9.87;;;;;;;4.84;84.48;102234.09;6196142;28;20245;-76
2020/12/10 00:59:48;;;;;;;16.40;10.60;;;;;;;4.76;84.55;102215.03;6210990;28;20236;-77
2020/12/10 01:02:52;;;;;;;16.53;10.23;;;;;;;4.87;84.54;102228.41;6216068;28;20224;-76
2020/12/10 01:05:56;;;;;;;18.93;11.10;;;;;;;4.89;83.12;102187.69;6213610;28;20599;-76
2020/12/10 01:09:00;;;;;;;15.40;10.03;;;;;;;5.08;83.07;102215.50;6217292;28;20260;-77
2020/12/10 01:12:05;;;;;;;17.77;9.73;;;;;;;5.11;83.32;102219.75;6217193;28;20550;-76
2020/12/10 01:15:12;;;;;;;16.43;10.23;;;;;;;5.03;83.77;102231.31;6217511;28;20718;-76
2020/12/10 01:18:25;;;;;;;17.70;10.43;;;;;;;4.70;84.46;102203.97;6217227;28;20215;-76
2020/12/10 01:21:31;;;;;;;14.70;9.73;;;;;;;4.80;85.24;102221.84;6210254;28;20235;-76
2020/12/10 01:24:37;;;;;;;16.70;10.37;;;;;;;4.83;84.59;102215.28;6215497;28;20613;-76
2020/12/10 01:27:41;;;;;;;15.10;10.10;;;;;;;4.90;84.38;102222.72;6215714;28;20234;-77
2020/12/10 01:30:44;;;;;;;15.57;9.73;;;;;;;5.01;84.00;102203.56;6217083;28;20199;-76
2020/12/10 01:33:56;;;;;;;19.43;10.40;;;;;;;5.10;83.44;102219.91;6217188;28;20213;-76
2020/12/10 01:37:01;;;;;;;17.63;10.33;;;;;;;4.93;84.63;102214.28;6224025;28;20237;-79
2020/12/10 01:40:05;;;;;;;15.63;10.37;;;;;;;4.80;85.29;102186.69;6225281;28;20235;-75
2020/12/10 01:43:17;;;;;;;17.93;10.20;;;;;;;4.90;85.08;102211.88;6223470;28;20221;-76
2020/12/10 01:46:26;;;;;;;16.70;10.53;;;;;;;4.77;85.65;102189.72;6222966;28;20192;-76
2020/12/10 01:49:31;;;;;;;17.33;9.93;;;;;;;4.83;86.64;102216.16;6224897;28;20224;-76
2020/12/10 01:52:34;;;;;;;17.03;10.13;;;;;;;4.97;85.28;102207.59;6222061;28;20225;-76
2020/12/10 01:55:39;;;;;;;19.53;10.83;;;;;;;5.12;84.37;102215.22;6223113;28;20209;-76
2020/12/10 01:58:43;;;;;;;19.03;9.70;;;;;;;5.05;84.50;102210.41;6219087;28;20207;-78
2020/12/10 02:01:46;;;;;;;18.73;10.20;;;;;;;4.88;85.58;102203.03;6211033;28;20211;-76
2020/12/10 02:04:57;;;;;;;15.80;10.13;;;;;;;4.84;85.56;102212.47;6224973;28;20700;-76
2020/12/10 02:08:00;;;;;;;15.97;9.90;;;;;;;4.63;86.68;102203.69;6225315;28;20184;-76
2020/12/10 02:11:08;;;;;;;18.00;9.67;;;;;;;4.90;85.83;102211.88;6223898;28;20290;-78
2020/12/10 02:14:12;;;;;;;17.37;10.47;;;;;;;4.96;84.95;102227.50;6215372;28;20265;-75
2020/12/10 02:17:19;;;;;;;14.80;9.47;;;;;;;4.89;84.87;102212.88;6224091;28;20201;-76
2020/12/10 02:20:26;;;;;;;13.40;9.27;;;;;;;4.57;85.02;102188.03;6221519;28;20221;-75
2020/12/10 02:23:34;;;;;;;12.47;8.37;;;;;;;4.78;84.10;102204.94;6221312;28;20261;-75
2020/12/10 02:26:38;;;;;;;16.57;8.97;;;;;;;4.76;84.58;102204.22;6204978;28;20239;-75
2020/12/10 02:29:42;;;;;;;13.83;9.57;;;;;;;4.60;85.59;102193.16;6223936;28;20340;-77
2020/12/10 02:32:46;;;;;;;15.43;9.97;;;;;;;4.60;85.68;102197.72;6223966;28;20195;-76
2020/12/10 02:35:59;;;;;;;12.30;8.83;;;;;;;4.79;83.83;102198.53;6224771;28;20197;-76
2020/12/10 02:39:06;;;;;;;16.93;9.57;;;;;;;4.86;84.05;102199.66;6219206;28;20203;-75
2020/12/10 02:42:12;;;;;;;16.83;9.70;;;;;;;4.77;84.35;102203.25;6221579;28;20211;-75
2020/12/10 02:45:18;;;;;;;21.17;9.27;;;;;;;4.65;85.19;102195.44;6215474;28;20240;-76
2020/12/10 02:48:30;;;;;;;16.23;9.53;;;;;;;4.62;85.08;102193.88;6217497;28;20271;-76
2020/12/10 02:51:34;;;;;;;19.13;9.70;;;;;;;4.67;84.68;102194.31;6219715;28;20214;-76
2020/12/10 02:54:38;;;;;;;15.47;9.37;;;;;;;4.57;84.77;102190.75;6219387;28;20647;-75
2020/12/10 02:57:43;;;;;;;17.43;10.07;;;;;;;4.67;84.89;102182.63;6218015;28;20663;-79
2020/12/10 03:00:47;;;;;;;20.20;9.93;;;;;;;4.52;84.45;102163.28;6221190;28;20736;-75
2020/12/10 03:04:04;;;;;;;17.27;9.93;;;;;;;4.10;86.07;102102.53;6219580;28;20692;-75
2020/12/10 03:07:09;;;;;;;16.60;10.37;;;;;;;4.69;85.29;102181.50;6202636;28;20189;-76
2020/12/10 03:10:18;;;;;;;20.43;10.27;;;;;;;4.68;84.73;102177.06;6217171;28;20341;-75
2020/12/10 03:13:32;;;;;;;24.03;11.10;;;;;;;4.73;84.92;102182.88;6216699;28;20955;-75
2020/12/10 03:16:35;;;;;;;22.73;10.50;;;;;;;4.89;83.73;102175.00;6208377;28;20195;-77
2020/12/10 03:19:39;;;;;;;18.37;10.70;;;;;;;4.91;83.88;102173.00;6214994;28;20200;-77
2020/12/10 03:22:42;;;;;;;19.53;10.67;;;;;;;4.92;83.59;102172.03;6218262;28;20279;-75
2020/12/10 03:25:46;;;;;;;19.53;11.30;;;;;;;4.70;85.51;102171.53;6219895;28;20246;-75
2020/12/10 03:28:50;;;;;;;21.27;10.60;;;;;;;4.71;85.59;102174.06;6220458;28;20231;-76
2020/12/10 03:31:53;;;;;;;16.50;10.57;;;;;;;4.77;85.27;102168.09;6218425;28;20212;-75
2020/12/10 03:34:56;;;;;;;21.10;10.80;;;;;;;4.72;84.86;102167.69;6200907;28;20303;-75
2020/12/10 03:38:00;;;;;;;19.30;10.60;;;;;;;4.51;86.24;102167.03;6218860;28;20189;-79
2020/12/10 03:41:05;;;;;;;20.87;11.67;;;;;;;4.63;86.26;102179.34;6215416;28;20209;-74
2020/12/10 03:44:10;;;;;;;20.60;11.53;;;;;;;4.42;85.69;102146.25;6212877;28;20264;-75
2020/12/10 03:47:18;;;;;;;19.77;11.50;;;;;;;4.51;86.12;102177.84;6218289;28;20573;-78
2020/12/10 03:50:22;;;;;;;25.33;11.17;;;;;;;4.73;85.54;102161.25;6216077;28;20551;-75
2020/12/10 03:53:30;;;;;;;18.23;11.07;;;;;;;4.62;86.31;102169.56;6218857;28;20239;-77
2020/12/10 03:56:35;;;;;;;22.97;11.93;;;;;;;4.41;86.37;102160.78;6197366;28;20548;-76
2020/12/10 03:59:39;;;;;;;21.53;11.50;;;;;;;4.55;85.79;102168.41;6215438;28;20873;-76
2020/12/10 04:02:42;;;;;;;18.97;11.13;;;;;;;4.71;85.53;102171.38;6210230;28;20212;-76
2020/12/10 04:05:45;;;;;;;16.50;11.17;;;;;;;4.52;85.33;102179.50;6218105;28;20207;-76
2020/12/10 04:08:49;;;;;;;20.87;11.17;;;;;;;4.42;85.11;102168.72;6217333;28;20255;-76
2020/12/10 04:11:53;;;;;;;19.67;10.80;;;;;;;4.18;84.06;102099.97;6202736;28;20211;-75
2020/12/10 04:14:57;;;;;;;23.63;11.63;;;;;;;4.68;84.11;102174.38;6217611;28;20214;-76
2020/12/10 04:18:00;;;;;;;18.50;11.10;;;;;;;4.46;84.53;102180.13;6217309;28;20642;-75
2020/12/10 04:21:03;;;;;;;25.03;11.63;;;;;;;4.61;83.89;102173.25;6216784;28;20202;-75
2020/12/10 04:24:08;;;;;;;20.73;12.17;;;;;;;4.19;83.08;102098.94;6218028;28;20696;-76
2020/12/10 04:27:15;;;;;;;21.07;11.67;;;;;;;4.72;83.14;102170.38;6216634;28;20381;-77
2020/12/10 04:30:21;;;;;;;19.67;11.47;;;;;;;4.72;82.97;102169.53;6217884;28;20195;-77
2020/12/10 04:33:37;;;;;;;20.73;11.53;;;;;;;4.81;82.33;102172.19;6216659;28;20692;-77
2020/12/10 04:36:41;;;;;;;21.27;12.27;;;;;;;4.70;82.89;102166.13;6217065;28;20204;-75
2020/12/10 04:39:44;;;;;;;18.40;11.37;;;;;;;4.66;83.11;102175.50;6213669;28;20226;-76
2020/12/10 04:42:49;;;;;;;18.17;11.37;;;;;;;4.67;82.57;102169.97;6216635;28;20283;-75
2020/12/10 04:45:56;;;;;;;23.70;11.87;;;;;;;4.52;83.36;102152.47;6216638;28;20703;-76
2020/12/10 04:49:01;;;;;;;17.03;10.23;;;;;;;4.56;82.37;102153.91;6202754;28;20692;-76
2020/12/10 04:52:07;;;;;;;19.97;11.03;;;;;;;4.60;82.51;102155.31;6217150;28;20196;-76
2020/12/10 04:55:10;;;;;;;18.47;10.63;;;;;;;4.73;81.21;102150.44;6209175;28;20255;-77
2020/12/10 04:58:18;;;;;;;23.57;11.80;;;;;;;4.61;82.35;102154.31;6212580;28;20212;-76
2020/12/10 05:01:23;;;;;;;19.53;11.07;;;;;;;4.75;81.81;102148.44;6215823;28;20275;-77
2020/12/10 05:04:27;;;;;;;21.20;10.30;;;;;;;4.64;81.38;102151.34;6216931;28;20279;-76
2020/12/10 05:07:39;;;;;;;16.33;11.17;;;;;;;4.80;81.22;102156.13;6215590;28;20333;-78
2020/12/10 05:10:44;;;;;;;21.43;11.80;;;;;;;4.53;81.89;102143.38;6216055;28;20191;-75
2020/12/10 05:13:54;;;;;;;17.37;10.97;;;;;;;4.69;81.62;102149.03;6215258;28;20255;-75
2020/12/10 05:17:12;;;;;;;20.70;11.20;;;;;;;4.42;81.17;102114.69;6216546;28;20192;-78
2020/12/10 05:20:18;;;;;;;17.43;11.73;;;;;;;4.62;81.71;102164.16;6215305;28;20196;-77
2020/12/10 05:23:30;;;;;;;25.47;11.10;;;;;;;4.73;80.43;102155.84;6216352;28;20301;-79
2020/12/10 05:26:34;;;;;;;20.93;10.77;;;;;;;4.85;80.40;102160.06;6216248;28;20720;-76
2020/12/10 05:29:57;;;;;;;20.57;11.67;;;;;;;4.77;80.49;102156.41;6215807;28;20642;-75
2020/12/10 05:33:09;;;;;;;19.13;10.97;;;;;;;4.64;80.55;102151.34;6216113;28;20292;-76
2020/12/10 05:36:15;;;;;;;18.27;10.97;;;;;;;4.84;79.99;102154.81;6216034;28;20224;-77
2020/12/10 05:39:19;;;;;;;15.43;10.87;;;;;;;4.62;80.64;102147.94;6215763;28;20317;-76
2020/12/10 05:42:23;;;;;;;19.77;10.73;;;;;;;4.73;79.44;102160.41;6217404;28;20325;-76
2020/12/10 05:45:28;;;;;;;19.20;12.37;;;;;;;4.44;81.89;102163.19;6215702;28;20221;-76
2020/12/10 05:48:40;;;;;;;18.50;10.90;;;;;;;4.40;80.10;102148.25;6216281;28;20218;-77
2020/12/10 05:51:45;;;;;;;15.47;10.80;;;;;;;4.46;80.62;102163.91;6215866;28;20198;-75
2020/12/10 05:54:57;;;;;;;19.07;11.30;;;;;;;4.59;79.93;102169.84;6213425;28;20680;-78
2020/12/10 05:58:01;;;;;;;18.63;10.53;;;;;;;4.61;80.09;102167.00;6208309;28;20195;-77
2020/12/10 06:01:08;;;;;;;19.67;11.57;;;;;;;4.44;80.03;102160.50;6210870;28;20408;-77
2020/12/10 06:04:22;;;;;;;19.27;11.07;;;;;;;4.40;80.85;102175.28;6186197;28;20230;-76
2020/12/10 06:07:28;;;;;;;13.30;9.40;;;;;;;4.51;79.11;102177.84;6214556;28;20206;-75
2020/12/10 06:10:36;;;;;;;16.03;9.87;;;;;;;4.55;78.96;102178.38;6209531;28;20196;-75
2020/12/10 06:13:39;;;;;;;13.93;10.23;;;;;;;4.32;79.55;102167.91;6207171;28;20210;-78
2020/12/10 06:16:43;;;;;;;18.83;10.57;;;;;;;4.39;80.15;102162.78;6206330;28;20313;-77
2020/12/10 06:19:47;;;;;;;21.23;9.77;;;;;;;4.32;80.26;102162.50;6215337;28;20216;-78
2020/12/10 06:22:51;;;;;;;20.90;11.23;;;;;;;4.60;78.63;102160.72;6215289;28;20213;-77
2020/12/10 06:25:56;;;;;;;18.60;10.70;;;;;;;4.49;79.91;102166.31;6214556;28;20304;-76
2020/12/10 06:29:17;;;;;;;15.77;9.97;;;;;;;4.51;78.62;102144.53;6219316;28;20346;-76
2020/12/10 06:32:22;;;;;;;17.87;10.77;;;;;;;4.35;79.60;102137.03;6220011;28;20200;-76
2020/12/10 06:35:30;;;;;;;18.67;10.87;;;;;;;4.73;78.93;102172.06;6215471;28;20206;-76
2020/12/10 06:38:42;;;;;;;19.77;11.40;;;;;;;4.65;79.39;102163.84;6215880;28;20251;-75
2020/12/10 06:41:58;;;;;;;20.63;11.67;;;;;;;4.69;80.23;102178.78;6217530;28;20214;-75
2020/12/10 06:45:01;;;;;;;19.93;11.43;;;;;;;4.62;80.57;102174.97;6214885;28;20661;-78
2020/12/10 06:48:12;;;;;;;20.80;10.53;;;;;;;4.62;80.37;102182.22;6217073;28;20205;-79
2020/12/10 06:51:18;;;;;;;18.23;11.80;;;;;;;4.53;80.16;102180.38;6218699;28;20347;-75
2020/12/10 06:54:26;;;;;;;20.33;10.70;;;;;;;4.48;80.66;102178.13;6221555;28;20342;-77
2020/12/10 06:57:49;;;;;;;14.73;9.97;;;;;;;4.39;79.52;102184.41;6211527;28;20300;-76
2020/12/10 07:00:55;;;;;;;17.93;10.47;;;;;;;4.46;79.38;102174.72;6221940;28;20515;-76
2020/12/10 07:07:39;;;;;;;14.80;10.03;;;;;;;4.34;79.51;102170.44;6221543;28;20209;-76
2020/12/10 07:10:45;;;;;;;24.60;10.67;;;;;;;4.26;80.68;102189.25;6216751;28;20646;-75
2020/12/10 07:13:48;;;;;;;15.73;9.97;;;;;;;4.32;79.63;102175.13;6207331;28;20205;-77
2020/12/10 07:16:52;;;;;;;15.03;9.70;;;;;;;4.56;79.05;102186.34;6216857;28;20210;-76
2020/12/10 07:19:56;;;;;;;23.13;11.27;;;;;;;4.53;79.09;102170.41;6208326;28;20209;-76
2020/12/10 07:23:01;;;;;;;28.47;11.77;;;;;;;4.45;80.07;102178.41;6216280;28;20523;-77
2020/12/10 07:26:08;;;;;;;22.17;11.53;;;;;;;4.32;80.54;102173.31;6207542;28;20205;-75
2020/12/10 07:29:13;;;;;;;22.63;11.20;;;;;;;4.36;80.71;102157.66;6192009;28;20221;-76
2020/12/10 07:32:20;;;;;;;22.60;10.90;;;;;;;4.59;79.21;102172.56;6197972;28;21324;-75
2020/12/10 07:35:32;;;;;;;19.77;11.07;;;;;;;4.67;79.60;102172.69;6213479;28;20693;-75
2020/12/10 07:38:35;;;;;;;21.47;10.87;;;;;;;4.50;79.80;102154.50;6201327;28;20198;-77
2020/12/10 07:41:39;;;;;;;20.27;11.73;;;;;;;4.55;80.47;102173.81;6213657;28;20290;-76
2020/12/10 07:44:43;;;;;;;18.27;10.90;;;;;;;4.37;80.00;102171.03;6219273;28;20208;-77
2020/12/10 07:47:54;;;;;;;15.33;10.63;;;;;;;4.25;80.92;102168.63;6217464;28;20199;-77
2020/12/10 07:50:58;;;;;;;18.60;10.93;;;;;;;4.43;80.59;102169.59;6218967;28;20240;-76
2020/12/10 07:54:03;;;;;;;18.80;10.63;;;;;;;4.52;79.13;102173.28;6216333;28;20195;-77
2020/12/10 07:57:22;;;;;;;17.83;10.23;;;;;;;4.56;78.67;102172.84;6198382;28;20289;-76
2020/12/10 08:00:28;;;;;;;14.93;9.80;;;;;;;4.67;78.66;102171.81;6214089;28;20197;-77
2020/12/10 08:03:56;;;;;;;18.43;10.40;;;;;;;4.34;79.72;102175.84;6206201;28;20225;-77
2020/12/10 08:07:00;;;;;;;22.57;10.93;;;;;;;4.26;80.98;102184.66;6209844;28;20203;-78
2020/12/10 08:10:05;;;;;;;22.43;10.93;;;;;;;4.30;80.52;102174.44;6212360;28;20208;-74
2020/12/10 08:13:16;;;;;;;18.57;10.23;;;;;;;4.58;79.52;102183.50;6206650;28;20805;-75
2020/12/10 08:16:20;;;;;;;14.33;9.70;;;;;;;4.46;79.47;102180.13;6209572;28;20309;-75
2020/12/10 08:19:26;;;;;;;12.83;9.77;;;;;;;4.40;79.41;102175.28;6212876;28;20297;-76
2020/12/10 08:22:33;;;;;;;15.23;9.77;;;;;;;4.38;79.48;102166.47;6196503;28;20311;-76
2020/12/10 08:25:36;;;;;;;13.57;9.70;;;;;;;4.31;79.58;102189.66;6210816;28;20572;-76
2020/12/10 08:28:51;;;;;;;13.57;9.80;;;;;;;4.26;79.82;102189.25;6205159;28;20657;-77
2020/12/10 08:32:05;;;;;;;20.87;8.93;;;;;;;4.33;78.78;102179.56;6211141;28;20649;-76
2020/12/10 08:35:21;;;;;;;14.53;9.17;;;;;;;4.02;79.42;102169.91;6214127;28;20632;-76
2020/12/10 08:38:33;;;;;;;16.30;8.40;;;;;;;4.18;79.03;102175.59;6213290;28;20670;-75
2020/12/10 08:41:38;;;;;;;20.33;10.47;;;;;;;4.21;79.94;102181.53;6210257;28;20213;-75
2020/12/10 08:44:45;;;;;;;13.97;8.93;;;;;;;4.16;79.08;102151.41;6211414;28;20703;-76
2020/12/10 08:48:01;;;;;;;11.37;9.03;;;;;;;4.12;80.15;102179.72;6207564;28;20197;-78
2020/12/10 08:51:05;;;;;;;13.70;9.30;;;;;;;4.23;78.57;102173.31;6208281;28;20203;-76
2020/12/10 08:54:10;;;;;;;12.83;9.13;;;;;;;4.36;78.38;102173.88;6212017;28;20209;-76
2020/12/10 08:57:16;;;;;;;14.37;9.20;;;;;;;4.20;79.02;102163.66;6214651;28;20220;-77
2020/12/10 09:00:19;;;;;;;15.37;9.47;;;;;;;4.28;79.12;102155.69;6214581;28;20630;-77
2020/12/10 09:03:39;;;;;;;17.50;9.73;;;;;;;4.18;79.95;102175.59;6216323;28;20295;-77
2020/12/10 09:06:47;;;;;;;21.37;9.57;;;;;;;4.13;79.91;102167.06;6199397;28;20632;-75
2020/12/10 09:09:51;;;;;;;14.13;9.03;;;;;;;4.26;78.31;102175.75;6216672;28;20220;-77
2020/12/10 09:12:56;;;;;;;13.13;9.43;;;;;;;3.98;79.30;102152.31;6217168;28;20208;-76
2020/12/10 09:16:17;;;;;;;13.60;9.67;;;;;;;4.23;79.03;102165.22;6216097;28;20244;-76
2020/12/10 09:19:20;;;;;;;13.70;9.90;;;;;;;4.24;79.57;102169.59;6215457;28;20209;-77
2020/12/10 09:22:24;;;;;;;16.03;9.67;;;;;;;4.25;79.81;102176.72;6215342;28;20196;-76
2020/12/10 09:25:28;;;;;;;20.37;10.00;;;;;;;4.04;80.53;102173.31;6217022;28;20784;-77
2020/12/10 09:28:33;;;;;;;16.50;9.57;;;;;;;4.27;79.69;102181.00;6211288;28;20371;-76
2020/12/10 09:31:37;;;;;;;20.20;10.00;;;;;;;4.06;81.25;102172.19;6191241;28;20206;-76
2020/12/10 09:34:42;;;;;;;11.40;7.70;;;;;;;4.08;79.61;102172.91;6216125;28;20247;-77
2020/12/10 09:37:46;;;;;;;11.03;8.27;;;;;;;4.19;78.75;102155.69;6199437;28;20638;-77
2020/12/10 09:40:50;;;;;;;14.80;8.67;;;;;;;4.02;79.18;102159.09;6213368;28;20673;-77
2020/12/10 09:43:53;;;;;;;11.60;7.33;;;;;;;4.26;78.21;102164.94;6216622;28;20204;-77
2020/12/10 09:46:56;;;;;;;11.37;7.50;;;;;;;4.15;78.40;102165.06;6209490;28;20206;-77
2020/12/10 09:50:01;;;;;;;15.47;7.43;;;;;;;3.84;79.24;102171.59;6212301;28;20217;-76
2020/12/10 09:53:15;;;;;;;8.07;7.27;;;;;;;3.88;79.88;102159.56;6217722;28;20671;-78
2020/12/10 09:56:45;;;;;;;18.17;8.13;;;;;;;4.00;79.12;102171.91;6220988;28;20699;-76
2020/12/10 09:59:49;;;;;;;12.60;8.20;;;;;;;3.53;81.21;102142.03;6220711;28;20198;-76
2020/12/10 10:02:52;;;;;;;14.23;7.87;;;;;;;3.74;81.11;102172.47;6216383;28;20627;-76
2020/12/10 10:05:56;;;;;;;17.73;8.03;;;;;;;3.70;81.12;102165.63;6218772;28;20290;-77
2020/12/10 10:09:03;;;;;;;9.60;7.00;;;;;;;3.75;80.79;102174.16;6219378;28;20228;-76
2020/12/10 10:12:11;;;;;;;10.70;7.53;;;;;;;3.84;79.80;102158.09;6217658;28;20534;-77
2020/12/10 10:15:20;;;;;;;9.97;6.83;;;;;;;3.52;80.79;102155.66;6220665;28;20196;-76
2020/12/10 10:18:33;;;;;;;12.60;6.90;;;;;;;3.56;80.97;102136.38;6217921;28;20204;-76
2020/12/10 10:21:36;;;;;;;9.87;6.83;;;;;;;3.67;79.71;102125.41;6222043;28;20198;-76
2020/12/10 10:24:39;;;;;;;12.90;7.67;;;;;;;3.62;80.92;102151.97;6213377;28;20206;-77
2020/12/10 10:27:45;;;;;;;8.30;6.53;;;;;;;3.86;79.09;102153.41;6218043;28;20247;-76
2020/12/10 10:30:50;;;;;;;10.03;6.93;;;;;;;3.90;78.42;102144.06;6218777;28;20232;-77
2020/12/10 10:34:00;;;;;;;12.00;6.60;;;;;;;4.02;77.47;102156.41;6218861;28;20551;-76
2020/12/10 10:37:06;;;;;;;10.47;6.03;;;;;;;4.10;76.93;102161.94;6217143;28;20255;-77
2020/12/10 10:40:11;;;;;;;7.47;5.83;;;;;;;3.97;76.24;102139.78;6219674;28;20354;-77
2020/12/10 10:43:20;;;;;;;8.60;6.40;;;;;;;3.74;77.64;102142.78;6220074;28;20562;-79
2020/12/10 10:46:25;;;;;;;9.53;6.87;;;;;;;3.74;78.15;102133.81;6219830;28;20203;-78
2020/12/10 10:49:29;;;;;;;7.77;5.83;;;;;;;3.92;75.93;102131.25;6220225;28;20237;-77
2020/12/10 10:52:35;;;;;;;11.87;6.30;;;;;;;4.04;73.69;102146.31;6220812;28;20284;-77
2020/12/10 10:55:38;;;;;;;7.57;5.87;;;;;;;3.59;73.58;102092.91;6219047;28;20229;-78
2020/12/10 10:58:42;;;;;;;6.30;5.67;;;;;;;3.98;73.68;102133.41;6211091;28;20217;-76
2020/12/10 11:01:46;;;;;;;7.93;5.73;;;;;;;3.97;73.98;102142.47;6219460;28;20554;-76
2020/12/10 11:04:56;;;;;;;8.80;5.90;;;;;;;4.02;73.38;102142.91;6218441;28;20208;-77
2020/12/10 11:07:59;;;;;;;13.07;5.87;;;;;;;3.98;74.27;102118.03;6219839;28;20193;-78
2020/12/10 11:11:04;;;;;;;9.90;6.50;;;;;;;3.69;75.79;102136.94;6220483;28;20196;-77
2020/12/10 11:14:11;;;;;;;8.57;6.20;;;;;;;3.79;74.95;102121.59;6217951;28;20281;-78
2020/12/10 11:17:18;;;;;;;10.03;5.63;;;;;;;3.72;73.49;102119.63;6219844;28;20720;-77
2020/12/10 11:20:21;;;;;;;7.10;5.60;;;;;;;3.90;72.95;102122.44;6219434;28;20355;-76
2020/12/10 11:23:32;;;;;;;9.00;6.03;;;;;;;3.61;74.13;102122.44;6218439;28;20459;-76
2020/12/10 11:26:37;;;;;;;10.80;5.87;;;;;;;3.35;74.00;102057.38;6219920;28;20236;-76
2020/12/10 11:29:41;;;;;;;10.03;6.40;;;;;;;3.80;73.65;102123.28;6220039;28;20194;-80
2020/12/10 11:32:46;;;;;;;6.43;5.47;;;;;;;3.69;72.60;102115.34;6214063;28;20192;-76
2020/12/10 11:36:09;;;;;;;7.50;5.30;;;;;;;3.79;73.06;102116.19;6219724;28;20706;-75
2020/12/10 11:39:23;;;;;;;6.17;5.57;;;;;;;3.72;73.26;102109.66;6219432;28;20217;-76
2020/12/10 11:42:31;;;;;;;8.13;5.97;;;;;;;3.59;73.82;102114.50;6219311;28;20200;-75
2020/12/10 11:45:38;;;;;;;8.57;5.90;;;;;;;3.64;73.18;102116.78;6218941;28;20201;-77
2020/12/10 11:48:49;;;;;;;5.97;5.23;;;;;;;3.76;72.68;102105.69;6217029;28;20268;-76
2020/12/10 11:51:53;;;;;;;6.67;5.03;;;;;;;3.61;72.50;102107.09;6218676;28;20224;-76
2020/12/10 11:54:57;;;;;;;8.23;5.53;;;;;;;3.67;73.74;102103.81;6216159;28;20218;-77
2020/12/10 11:58:00;;;;;;;6.43;5.50;;;;;;;3.60;73.69;102094.59;6192444;28;20422;-76
2020/12/10 12:01:06;;;;;;;7.30;5.73;;;;;;;3.53;73.72;102112.34;6217426;28;20200;-79
2020/12/10 12:04:25;;;;;;;12.30;5.97;;;;;;;3.63;74.91;102099.72;6213205;28;20202;-77
2020/12/10 12:07:29;;;;;;;8.37;6.30;;;;;;;3.31;76.05;102085.63;6200833;28;20282;-77
2020/12/10 12:10:33;;;;;;;7.70;6.00;;;;;;;3.58;75.03;102096.59;6210331;28;20293;-80
2020/12/10 12:13:41;;;;;;;17.57;5.97;;;;;;;3.67;74.66;102095.72;6207460;28;20245;-75
2020/12/10 12:16:47;;;;;;;8.57;5.63;;;;;;;3.82;74.60;102087.22;6216574;28;20222;-80
2020/12/10 12:19:50;;;;;;;15.73;6.10;;;;;;;3.76;73.61;102078.69;6200310;28;20239;-76
2020/12/10 12:22:56;;;;;;;6.57;5.97;;;;;;;3.80;73.73;102084.63;6218438;28;20287;-77
2020/12/10 12:26:01;;;;;;;8.57;5.70;;;;;;;3.78;74.11;102094.72;6214530;28;20644;-78
2020/12/10 12:29:06;;;;;;;8.03;5.47;;;;;;;3.79;73.86;102089.22;6210334;28;20221;-79
2020/12/10 12:32:16;;;;;;;5.90;5.40;;;;;;;3.90;72.79;102085.50;6210280;28;20201;-76
2020/12/10 12:35:22;;;;;;;10.77;5.90;;;;;;;3.98;73.77;102074.00;6212489;28;20262;-77
2020/12/10 12:38:36;;;;;;;8.13;5.97;;;;;;;3.79;73.00;102051.41;6222939;28;20558;-78
2020/12/10 12:41:40;;;;;;;12.70;6.33;;;;;;;3.74;74.75;102069.88;6217895;28;20421;-76
2020/12/10 12:44:44;;;;;;;8.03;6.17;;;;;;;3.72;75.50;102071.03;6211609;28;20242;-75
2020/12/10 12:47:48;;;;;;;8.97;6.17;;;;;;;3.59;73.80;102033.53;6208426;28;20212;-78
2020/12/10 12:50:51;;;;;;;6.30;5.50;;;;;;;3.78;73.06;102065.91;6208373;28;20637;-76
2020/12/10 12:53:55;;;;;;;8.90;5.60;;;;;;;3.58;73.77;102061.50;6212528;28;20192;-74
2020/12/10 12:56:59;;;;;;;10.80;5.77;;;;;;;3.73;73.62;102062.78;6207437;28;20230;-76
2020/12/10 13:00:04;;;;;;;11.83;5.87;;;;;;;3.57;73.69;102035.50;6199678;28;20207;-78
2020/12/10 13:03:22;;;;;;;8.47;6.23;;;;;;;3.85;72.75;102054.53;6206179;28;20194;-75
2020/12/10 13:11:21;;;;;;;10.97;5.90;;;;;;;3.41;73.36;102046.03;6209280;28;20680;-76
2020/12/10 13:14:26;;;;;;;9.97;5.97;;;;;;;3.40;73.61;102038.91;6211819;28;20598;-75
2020/12/10 13:17:30;;;;;;;10.07;5.97;;;;;;;3.87;71.82;102048.00;6212263;28;20219;-75
2020/12/10 13:20:35;;;;;;;9.00;6.17;;;;;;;3.94;71.62;102032.03;6213432;28;20679;-75
2020/12/10 13:23:44;;;;;;;8.47;6.13;;;;;;;4.03;70.76;102036.59;6214757;28;20679;-75
2020/12/10 13:26:48;;;;;;;10.13;5.77;;;;;;;3.71;73.29;102036.91;6214093;28;20564;-76
2020/12/10 13:29:52;;;;;;;12.47;6.07;;;;;;;3.55;73.83;102029.41;6214567;28;20696;-76
2020/12/10 13:32:55;;;;;;;11.50;6.47;;;;;;;3.61;74.17;102031.53;6208802;28;20197;-76
2020/12/10 13:36:17;;;;;;;6.40;5.80;;;;;;;3.86;73.23;102040.03;6215135;28;20632;-77
2020/12/10 13:39:39;;;;;;;9.47;6.03;;;;;;;3.82;73.58;102030.50;6217138;28;20371;-76
2020/12/10 13:42:42;;;;;;;11.60;6.03;;;;;;;3.64;74.80;102031.25;6199762;28;20197;-78
2020/12/10 13:45:47;;;;;;;8.70;5.83;;;;;;;3.50;74.73;102028.97;6209015;28;20290;-80
2020/12/10 13:48:54;;;;;;;14.53;5.87;;;;;;;3.73;73.51;102019.59;6227444;28;20225;-78
2020/12/10 13:52:00;;;;;;;9.07;5.90;;;;;;;3.83;72.90;102018.72;6227311;28;20218;-77
2020/12/10 13:55:07;;;;;;;9.00;5.57;;;;;;;3.75;73.81;102016.72;6225564;28;20223;-77
2020/12/10 13:58:18;;;;;;;7.10;6.03;;;;;;;3.58;74.59;102006.66;6210266;28;20298;-81
2020/12/10 14:01:42;;;;;;;7.80;5.13;;;;;;;3.86;73.47;102018.41;6199793;28;20674;-75
2020/12/10 14:04:57;;;;;;;8.57;5.53;;;;;;;3.89;73.60;102023.53;6218984;28;20617;-76
2020/12/10 14:08:25;;;;;;;8.87;5.27;;;;;;;3.77;72.48;102026.38;6225286;28;20201;-77
2020/12/10 14:11:29;;;;;;;13.93;6.23;;;;;;;3.79;72.33;102024.41;6210633;28;20533;-78
2020/12/10 14:14:34;;;;;;;9.30;5.90;;;;;;;3.82;73.07;102022.41;6206113;28;20224;-77
2020/12/10 14:17:39;;;;;;;10.23;6.93;;;;;;;3.52;73.47;102016.19;6224222;28;20215;-78
2020/12/10 14:20:44;;;;;;;6.60;5.50;;;;;;;3.61;73.11;101999.16;6223676;28;20244;-78
2020/12/10 14:23:54;;;;;;;8.10;6.23;;;;;;;3.63;72.95;101991.75;6218840;28;20205;-77
2020/12/10 14:26:58;;;;;;;17.17;6.80;;;;;;;3.61;73.37;102001.84;6221278;28;20249;-76
2020/12/10 14:30:05;;;;;;;12.07;6.50;;;;;;;3.42;73.99;101974.88;6216558;28;20284;-80
2020/12/10 14:33:17;;;;;;;10.47;6.30;;;;;;;3.87;74.12;102010.19;6212814;28;20642;-78
2020/12/10 14:36:28;;;;;;;13.87;6.73;;;;;;;3.72;74.66;102011.63;6213875;28;20668;-77
2020/12/10 14:39:34;;;;;;;12.53;7.70;;;;;;;3.60;75.62;102007.38;6190462;28;20639;-77